sensor_id;sensor_type;location;lat;lon;timestamp;temperature;humidity
38020;DHT22;23829;51.350;17.286;2022-10-16T00:01:23;26.00;50.00
38020;DHT22;23829;51.350;17.286;2022-10-16T00:03:50;26.10;49.80
38020;DHT22;23829;51.350;17.286;2022-10-16T00:06:19;26.10;49.60
38020;DHT22;23829;51.350;17.286;2022-10-16T00:08:46;26.10;49.60
38020;DHT22;23829;51.350;17.286;2022-10-16T00:11:32;26.00;49.60
38020;DHT22;23829;51.350;17.286;2022-10-16T00:14:08;25.90;50.00
38020;DHT22;23829;51.350;17.286;2022-10-16T00:16:34;25.90;50.10
38020;DHT22;23829;51.350;17.286;2022-10-16T00:19:01;25.90;50.00
38020;DHT22;23829;51.350;17.286;2022-10-16T00:21:29;25.90;50.00
38020;DHT22;23829;51.350;17.286;2022-10-16T00:23:59;25.90;49.80
38020;DHT22;23829;51.350;17.286;2022-10-16T00:26:27;25.80;50.10
38020;DHT22;23829;51.350;17.286;2022-10-16T00:28:54;25.80;50.10
38020;DHT22;23829;51.350;17.286;2022-10-16T00:31:22;25.60;50.40
38020;DHT22;23829;51.350;17.286;2022-10-16T00:33:49;25.60;50.40
38020;DHT22;23829;51.350;17.286;2022-10-16T00:36:19;25.60;50.60
38020;DHT22;23829;51.350;17.286;2022-10-16T00:38:46;25.60;50.60
38020;DHT22;23829;51.350;17.286;2022-10-16T00:41:15;25.50;50.50
38020;DHT22;23829;51.350;17.286;2022-10-16T00:44:03;25.50;50.80
38020;DHT22;23829;51.350;17.286;2022-10-16T00:46:41;25.50;50.60
38020;DHT22;23829;51.350;17.286;2022-10-16T00:49:11;25.50;50.50
38020;DHT22;23829;51.350;17.286;2022-10-16T00:51:56;25.60;50.60
38020;DHT22;23829;51.350;17.286;2022-10-16T00:54:29;25.50;50.60
38020;DHT22;23829;51.350;17.286;2022-10-16T00:56:59;25.60;50.50
38020;DHT22;23829;51.350;17.286;2022-10-16T00:59:28;25.50;50.70
38020;DHT22;23829;51.350;17.286;2022-10-16T01:01:56;25.40;50.70
38020;DHT22;23829;51.350;17.286;2022-10-16T01:04:24;25.40;50.90
38020;DHT22;23829;51.350;17.286;2022-10-16T01:12:58;25.30;51.00
38020;DHT22;23829;51.350;17.286;2022-10-16T01:18:14;25.40;50.90
38020;DHT22;23829;51.350;17.286;2022-10-16T01:20:58;25.40;50.90
38020;DHT22;23829;51.350;17.286;2022-10-16T01:23:44;25.30;51.00
38020;DHT22;23829;51.350;17.286;2022-10-16T01:40:24;25.50;50.90
38020;DHT22;23829;51.350;17.286;2022-10-16T01:43:07;25.40;51.10
38020;DHT22;23829;51.350;17.286;2022-10-16T01:45:35;25.40;51.50
38020;DHT22;23829;51.350;17.286;2022-10-16T01:48:03;25.50;51.40
38020;DHT22;23829;51.350;17.286;2022-10-16T01:50:37;25.60;51.00
38020;DHT22;23829;51.350;17.286;2022-10-16T01:53:08;25.70;50.80
38020;DHT22;23829;51.350;17.286;2022-10-16T01:55:39;25.90;50.60
38020;DHT22;23829;51.350;17.286;2022-10-16T01:58:10;25.80;50.70
38020;DHT22;23829;51.350;17.286;2022-10-16T02:00:41;25.80;50.50
38020;DHT22;23829;51.350;17.286;2022-10-16T02:03:10;25.70;50.60
38020;DHT22;23829;51.350;17.286;2022-10-16T02:05:47;25.70;50.60
38020;DHT22;23829;51.350;17.286;2022-10-16T02:08:15;25.80;50.40
38020;DHT22;23829;51.350;17.286;2022-10-16T02:10:41;25.90;50.20
38020;DHT22;23829;51.350;17.286;2022-10-16T02:13:23;25.80;50.30
38020;DHT22;23829;51.350;17.286;2022-10-16T02:15:52;25.60;50.50
38020;DHT22;23829;51.350;17.286;2022-10-16T02:18:20;25.60;50.60
38020;DHT22;23829;51.350;17.286;2022-10-16T02:23:50;25.60;50.70
38020;DHT22;23829;51.350;17.286;2022-10-16T02:27:06;25.50;51.00
38020;DHT22;23829;51.350;17.286;2022-10-16T02:29:16;25.60;50.90
38020;DHT22;23829;51.350;17.286;2022-10-16T02:31:48;25.90;50.60
38020;DHT22;23829;51.350;17.286;2022-10-16T02:34:16;25.80;50.50
38020;DHT22;23829;51.350;17.286;2022-10-16T02:36:45;25.90;50.40
38020;DHT22;23829;51.350;17.286;2022-10-16T02:39:14;26.10;50.10
38020;DHT22;23829;51.350;17.286;2022-10-16T02:41:40;26.10;49.90
38020;DHT22;23829;51.350;17.286;2022-10-16T02:44:07;26.20;49.80
38020;DHT22;23829;51.350;17.286;2022-10-16T02:46:33;26.40;49.50
38020;DHT22;23829;51.350;17.286;2022-10-16T02:48:59;26.40;49.30
38020;DHT22;23829;51.350;17.286;2022-10-16T02:51:26;26.20;49.50
38020;DHT22;23829;51.350;17.286;2022-10-16T02:53:52;26.30;49.60
38020;DHT22;23829;51.350;17.286;2022-10-16T02:56:19;26.20;49.60
38020;DHT22;23829;51.350;17.286;2022-10-16T02:58:45;26.10;49.90
38020;DHT22;23829;51.350;17.286;2022-10-16T03:01:12;26.20;49.70
38020;DHT22;23829;51.350;17.286;2022-10-16T03:03:40;26.20;49.80
38020;DHT22;23829;51.350;17.286;2022-10-16T03:06:06;26.10;49.90
38020;DHT22;23829;51.350;17.286;2022-10-16T03:08:32;26.10;49.80
38020;DHT22;23829;51.350;17.286;2022-10-16T03:10:59;26.00;50.00
38020;DHT22;23829;51.350;17.286;2022-10-16T03:13:28;26.20;49.70
38020;DHT22;23829;51.350;17.286;2022-10-16T03:15:55;26.20;49.60
38020;DHT22;23829;51.350;17.286;2022-10-16T03:18:21;26.30;49.40
38020;DHT22;23829;51.350;17.286;2022-10-16T03:20:50;26.30;49.40
38020;DHT22;23829;51.350;17.286;2022-10-16T03:23:17;26.30;49.50
38020;DHT22;23829;51.350;17.286;2022-10-16T03:25:43;26.20;49.50
38020;DHT22;23829;51.350;17.286;2022-10-16T03:28:09;26.00;49.90
38020;DHT22;23829;51.350;17.286;2022-10-16T03:30:36;25.80;50.30
38020;DHT22;23829;51.350;17.286;2022-10-16T03:33:02;25.90;50.00
38020;DHT22;23829;51.350;17.286;2022-10-16T03:35:29;26.00;50.00
38020;DHT22;23829;51.350;17.286;2022-10-16T03:37:55;25.90;49.90
38020;DHT22;23829;51.350;17.286;2022-10-16T03:40:22;26.00;50.00
38020;DHT22;23829;51.350;17.286;2022-10-16T03:42:49;25.90;50.00
38020;DHT22;23829;51.350;17.286;2022-10-16T03:45:15;25.80;50.20
38020;DHT22;23829;51.350;17.286;2022-10-16T03:47:42;26.00;49.90
38020;DHT22;23829;51.350;17.286;2022-10-16T03:50:08;26.20;49.60
38020;DHT22;23829;51.350;17.286;2022-10-16T03:52:34;26.30;49.50
38020;DHT22;23829;51.350;17.286;2022-10-16T03:55:01;26.40;49.00
38020;DHT22;23829;51.350;17.286;2022-10-16T03:57:27;26.50;49.00
38020;DHT22;23829;51.350;17.286;2022-10-16T03:59:54;26.50;49.00
38020;DHT22;23829;51.350;17.286;2022-10-16T04:02:20;26.50;48.70
38020;DHT22;23829;51.350;17.286;2022-10-16T04:04:47;26.30;49.20
38020;DHT22;23829;51.350;17.286;2022-10-16T04:07:13;26.40;48.90
38020;DHT22;23829;51.350;17.286;2022-10-16T04:09:39;26.40;49.10
38020;DHT22;23829;51.350;17.286;2022-10-16T04:12:06;26.50;49.00
38020;DHT22;23829;51.350;17.286;2022-10-16T04:14:32;26.50;48.90
38020;DHT22;23829;51.350;17.286;2022-10-16T04:16:59;26.40;49.30
38020;DHT22;23829;51.350;17.286;2022-10-16T04:19:25;26.30;49.30
38020;DHT22;23829;51.350;17.286;2022-10-16T04:21:52;26.30;49.50
38020;DHT22;23829;51.350;17.286;2022-10-16T04:24:18;26.30;49.50
38020;DHT22;23829;51.350;17.286;2022-10-16T04:26:45;26.30;49.50
38020;DHT22;23829;51.350;17.286;2022-10-16T04:29:11;26.20;49.90
38020;DHT22;23829;51.350;17.286;2022-10-16T04:31:38;26.10;49.70
38020;DHT22;23829;51.350;17.286;2022-10-16T04:34:04;26.10;49.90
38020;DHT22;23829;51.350;17.286;2022-10-16T04:36:30;26.00;49.90
38020;DHT22;23829;51.350;17.286;2022-10-16T04:38:57;25.90;50.10
38020;DHT22;23829;51.350;17.286;2022-10-16T04:41:23;25.80;50.50
38020;DHT22;23829;51.350;17.286;2022-10-16T04:43:50;25.80;50.50
38020;DHT22;23829;51.350;17.286;2022-10-16T04:46:16;25.70;50.50
38020;DHT22;23829;51.350;17.286;2022-10-16T04:48:42;25.70;50.60
38020;DHT22;23829;51.350;17.286;2022-10-16T04:51:08;25.90;50.20
38020;DHT22;23829;51.350;17.286;2022-10-16T04:53:35;26.00;50.00
38020;DHT22;23829;51.350;17.286;2022-10-16T04:56:01;25.90;50.10
38020;DHT22;23829;51.350;17.286;2022-10-16T04:58:28;26.00;49.80
38020;DHT22;23829;51.350;17.286;2022-10-16T05:00:54;25.90;49.80
38020;DHT22;23829;51.350;17.286;2022-10-16T05:03:21;25.80;50.00
38020;DHT22;23829;51.350;17.286;2022-10-16T05:05:47;25.90;49.80
38020;DHT22;23829;51.350;17.286;2022-10-16T05:08:15;25.80;50.10
38020;DHT22;23829;51.350;17.286;2022-10-16T05:10:42;25.80;50.20
38020;DHT22;23829;51.350;17.286;2022-10-16T05:13:10;25.90;50.00
38020;DHT22;23829;51.350;17.286;2022-10-16T05:15:36;25.90;50.00
38020;DHT22;23829;51.350;17.286;2022-10-16T05:18:03;25.90;50.10
38020;DHT22;23829;51.350;17.286;2022-10-16T05:20:29;25.60;50.60
38020;DHT22;23829;51.350;17.286;2022-10-16T05:22:56;25.60;50.70
38020;DHT22;23829;51.350;17.286;2022-10-16T05:25:22;25.90;50.30
38020;DHT22;23829;51.350;17.286;2022-10-16T05:27:49;25.90;50.10
38020;DHT22;23829;51.350;17.286;2022-10-16T05:30:16;26.00;50.00
38020;DHT22;23829;51.350;17.286;2022-10-16T05:32:47;26.10;50.00
38020;DHT22;23829;51.350;17.286;2022-10-16T05:35:15;25.90;50.30
38020;DHT22;23829;51.350;17.286;2022-10-16T05:37:42;25.90;50.30
38020;DHT22;23829;51.350;17.286;2022-10-16T05:40:09;25.90;50.40
38020;DHT22;23829;51.350;17.286;2022-10-16T05:42:36;25.90;50.30
38020;DHT22;23829;51.350;17.286;2022-10-16T05:45:04;26.00;50.30
38020;DHT22;23829;51.350;17.286;2022-10-16T05:47:31;25.90;50.30
38020;DHT22;23829;51.350;17.286;2022-10-16T05:49:57;26.00;50.10
38020;DHT22;23829;51.350;17.286;2022-10-16T05:52:23;25.90;50.50
38020;DHT22;23829;51.350;17.286;2022-10-16T05:54:50;26.00;50.10
38020;DHT22;23829;51.350;17.286;2022-10-16T05:57:17;26.10;50.10
38020;DHT22;23829;51.350;17.286;2022-10-16T05:59:43;26.00;50.20
38020;DHT22;23829;51.350;17.286;2022-10-16T06:02:13;26.00;50.20
38020;DHT22;23829;51.350;17.286;2022-10-16T06:04:39;26.00;50.10
38020;DHT22;23829;51.350;17.286;2022-10-16T06:07:06;26.00;50.20
38020;DHT22;23829;51.350;17.286;2022-10-16T06:09:32;26.10;50.00
38020;DHT22;23829;51.350;17.286;2022-10-16T06:11:59;26.30;49.80
38020;DHT22;23829;51.350;17.286;2022-10-16T06:14:25;26.40;49.80
38020;DHT22;23829;51.350;17.286;2022-10-16T06:16:52;26.30;50.00
38020;DHT22;23829;51.350;17.286;2022-10-16T06:19:18;26.30;50.00
38020;DHT22;23829;51.350;17.286;2022-10-16T06:21:44;26.30;50.70
38020;DHT22;23829;51.350;17.286;2022-10-16T06:24:11;26.30;50.10
38020;DHT22;23829;51.350;17.286;2022-10-16T06:26:38;26.50;49.80
38020;DHT22;23829;51.350;17.286;2022-10-16T06:29:04;26.50;49.70
38020;DHT22;23829;51.350;17.286;2022-10-16T06:31:31;26.60;49.70
38020;DHT22;23829;51.350;17.286;2022-10-16T06:33:59;26.60;49.60
38020;DHT22;23829;51.350;17.286;2022-10-16T06:36:26;26.50;49.70
38020;DHT22;23829;51.350;17.286;2022-10-16T06:38:53;26.70;49.50
38020;DHT22;23829;51.350;17.286;2022-10-16T06:41:22;26.60;49.60
38020;DHT22;23829;51.350;17.286;2022-10-16T06:43:48;26.50;50.00
38020;DHT22;23829;51.350;17.286;2022-10-16T06:46:18;26.50;49.80
38020;DHT22;23829;51.350;17.286;2022-10-16T06:48:47;26.60;49.80
38020;DHT22;23829;51.350;17.286;2022-10-16T06:51:17;26.80;49.60
38020;DHT22;23829;51.350;17.286;2022-10-16T06:53:47;26.80;49.40
38020;DHT22;23829;51.350;17.286;2022-10-16T06:56:19;26.80;49.70
38020;DHT22;23829;51.350;17.286;2022-10-16T06:58:45;26.90;49.50
38020;DHT22;23829;51.350;17.286;2022-10-16T07:01:13;26.80;49.40
38020;DHT22;23829;51.350;17.286;2022-10-16T07:03:41;26.80;49.60
38020;DHT22;23829;51.350;17.286;2022-10-16T07:06:10;26.80;49.60
38020;DHT22;23829;51.350;17.286;2022-10-16T07:08:40;26.90;49.50
38020;DHT22;23829;51.350;17.286;2022-10-16T07:11:19;26.90;49.60
38020;DHT22;23829;51.350;17.286;2022-10-16T07:13:47;27.10;49.20
38020;DHT22;23829;51.350;17.286;2022-10-16T07:16:24;27.10;49.20
38020;DHT22;23829;51.350;17.286;2022-10-16T07:18:51;27.20;49.30
38020;DHT22;23829;51.350;17.286;2022-10-16T07:21:24;27.30;49.20
38020;DHT22;23829;51.350;17.286;2022-10-16T07:23:57;27.50;48.80
38020;DHT22;23829;51.350;17.286;2022-10-16T07:26:24;27.70;48.90
38020;DHT22;23829;51.350;17.286;2022-10-16T07:28:51;27.70;48.70
38020;DHT22;23829;51.350;17.286;2022-10-16T07:31:19;27.70;48.70
38020;DHT22;23829;51.350;17.286;2022-10-16T07:33:47;27.70;48.70
38020;DHT22;23829;51.350;17.286;2022-10-16T07:36:16;27.60;49.10
38020;DHT22;23829;51.350;17.286;2022-10-16T07:38:42;27.80;49.00
38020;DHT22;23829;51.350;17.286;2022-10-16T07:41:11;28.00;48.70
38020;DHT22;23829;51.350;17.286;2022-10-16T07:43:38;28.20;48.40
38020;DHT22;23829;51.350;17.286;2022-10-16T07:46:05;28.10;48.50
38020;DHT22;23829;51.350;17.286;2022-10-16T07:48:33;28.20;48.40
38020;DHT22;23829;51.350;17.286;2022-10-16T07:51:01;28.10;48.50
38020;DHT22;23829;51.350;17.286;2022-10-16T07:53:28;28.00;48.70
38020;DHT22;23829;51.350;17.286;2022-10-16T07:56:03;27.90;49.00
38020;DHT22;23829;51.350;17.286;2022-10-16T07:58:30;27.70;49.30
38020;DHT22;23829;51.350;17.286;2022-10-16T08:00:57;27.90;49.00
38020;DHT22;23829;51.350;17.286;2022-10-16T08:03:26;28.00;49.00
38020;DHT22;23829;51.350;17.286;2022-10-16T08:05:53;28.20;48.70
38020;DHT22;23829;51.350;17.286;2022-10-16T08:08:20;28.10;48.90
38020;DHT22;23829;51.350;17.286;2022-10-16T08:10:46;28.20;48.90
38020;DHT22;23829;51.350;17.286;2022-10-16T08:13:13;28.20;48.90
38020;DHT22;23829;51.350;17.286;2022-10-16T08:15:44;28.10;49.00
38020;DHT22;23829;51.350;17.286;2022-10-16T08:18:13;28.10;49.20
38020;DHT22;23829;51.350;17.286;2022-10-16T08:20:40;28.20;49.40
38020;DHT22;23829;51.350;17.286;2022-10-16T08:23:07;28.40;49.10
38020;DHT22;23829;51.350;17.286;2022-10-16T08:25:35;28.30;49.10
38020;DHT22;23829;51.350;17.286;2022-10-16T08:28:07;28.40;49.00
38020;DHT22;23829;51.350;17.286;2022-10-16T08:30:34;28.80;48.70
38020;DHT22;23829;51.350;17.286;2022-10-16T08:33:01;28.90;48.40
38020;DHT22;23829;51.350;17.286;2022-10-16T08:35:28;28.90;48.50
38020;DHT22;23829;51.350;17.286;2022-10-16T08:37:54;28.90;48.50
38020;DHT22;23829;51.350;17.286;2022-10-16T08:40:27;29.00;48.30
38020;DHT22;23829;51.350;17.286;2022-10-16T08:48:51;28.80;49.10
38020;DHT22;23829;51.350;17.286;2022-10-16T08:51:28;28.90;49.10
38020;DHT22;23829;51.350;17.286;2022-10-16T08:53:57;29.10;48.70
38020;DHT22;23829;51.350;17.286;2022-10-16T08:56:25;29.00;48.80
38020;DHT22;23829;51.350;17.286;2022-10-16T08:58:52;29.00;49.00
38020;DHT22;23829;51.350;17.286;2022-10-16T09:01:22;29.40;48.70
38020;DHT22;23829;51.350;17.286;2022-10-16T09:12:40;29.40;48.60
38020;DHT22;23829;51.350;17.286;2022-10-16T09:21:16;29.80;48.20
38020;DHT22;23829;51.350;17.286;2022-10-16T09:23:44;30.10;47.70
38020;DHT22;23829;51.350;17.286;2022-10-16T09:26:14;30.40;47.30
38020;DHT22;23829;51.350;17.286;2022-10-16T09:28:42;30.20;47.10
38020;DHT22;23829;51.350;17.286;2022-10-16T09:31:17;30.20;47.20
38020;DHT22;23829;51.350;17.286;2022-10-16T09:33:52;30.20;47.20
38020;DHT22;23829;51.350;17.286;2022-10-16T09:36:20;30.20;47.20
38020;DHT22;23829;51.350;17.286;2022-10-16T09:38:47;30.30;47.10
38020;DHT22;23829;51.350;17.286;2022-10-16T09:41:21;30.10;47.30
38020;DHT22;23829;51.350;17.286;2022-10-16T09:43:59;30.20;47.40
38020;DHT22;23829;51.350;17.286;2022-10-16T09:49:24;30.50;46.60
38020;DHT22;23829;51.350;17.286;2022-10-16T09:52:02;30.70;46.40
38020;DHT22;23829;51.350;17.286;2022-10-16T09:54:28;30.80;46.30
38020;DHT22;23829;51.350;17.286;2022-10-16T09:57:07;30.70;46.60
38020;DHT22;23829;51.350;17.286;2022-10-16T09:59:34;30.80;46.60
38020;DHT22;23829;51.350;17.286;2022-10-16T10:02:15;31.00;46.40
38020;DHT22;23829;51.350;17.286;2022-10-16T10:04:51;31.00;45.80
38020;DHT22;23829;51.350;17.286;2022-10-16T10:07:42;30.90;46.10
38020;DHT22;23829;51.350;17.286;2022-10-16T10:10:23;31.00;46.10
38020;DHT22;23829;51.350;17.286;2022-10-16T10:12:50;30.80;46.30
38020;DHT22;23829;51.350;17.286;2022-10-16T10:15:16;30.90;46.40
38020;DHT22;23829;51.350;17.286;2022-10-16T10:17:54;31.00;46.20
38020;DHT22;23829;51.350;17.286;2022-10-16T10:20:30;31.00;46.20
38020;DHT22;23829;51.350;17.286;2022-10-16T10:22:58;31.20;45.90
38020;DHT22;23829;51.350;17.286;2022-10-16T10:28:50;31.30;45.60
38020;DHT22;23829;51.350;17.286;2022-10-16T10:39:43;31.40;45.80
38020;DHT22;23829;51.350;17.286;2022-10-16T10:42:38;31.80;45.20
38020;DHT22;23829;51.350;17.286;2022-10-16T10:45:43;31.70;45.40
38020;DHT22;23829;51.350;17.286;2022-10-16T10:51:04;31.80;45.10
38020;DHT22;23829;51.350;17.286;2022-10-16T10:56:57;31.90;44.80
38020;DHT22;23829;51.350;17.286;2022-10-16T11:07:36;31.90;45.00
38020;DHT22;23829;51.350;17.286;2022-10-16T11:10:18;31.90;45.30
38020;DHT22;23829;51.350;17.286;2022-10-16T11:12:52;31.90;45.20
38020;DHT22;23829;51.350;17.286;2022-10-16T11:15:36;32.00;45.10
38020;DHT22;23829;51.350;17.286;2022-10-16T11:18:27;32.10;45.00
38020;DHT22;23829;51.350;17.286;2022-10-16T11:21:09;32.30;45.10
38020;DHT22;23829;51.350;17.286;2022-10-16T11:26:11;32.10;45.10
38020;DHT22;23829;51.350;17.286;2022-10-16T11:28:49;32.30;44.70
38020;DHT22;23829;51.350;17.286;2022-10-16T11:39:30;32.70;43.90
38020;DHT22;23829;51.350;17.286;2022-10-16T11:42:10;32.50;44.10
38020;DHT22;23829;51.350;17.286;2022-10-16T11:44:43;32.50;44.00
38020;DHT22;23829;51.350;17.286;2022-10-16T11:50:01;32.50;44.00
38020;DHT22;23829;51.350;17.286;2022-10-16T11:52:36;32.60;43.00
38020;DHT22;23829;51.350;17.286;2022-10-16T11:57:39;32.80;43.10
38020;DHT22;23829;51.350;17.286;2022-10-16T12:08:25;33.00;43.00
38020;DHT22;23829;51.350;17.286;2022-10-16T12:10:52;33.10;42.20
38020;DHT22;23829;51.350;17.286;2022-10-16T12:13:32;33.20;42.00
38020;DHT22;23829;51.350;17.286;2022-10-16T12:18:40;33.30;42.40
38020;DHT22;23829;51.350;17.286;2022-10-16T12:21:07;33.30;42.50
38020;DHT22;23829;51.350;17.286;2022-10-16T12:23:52;33.30;42.50
38020;DHT22;23829;51.350;17.286;2022-10-16T12:26:32;33.20;42.60
38020;DHT22;23829;51.350;17.286;2022-10-16T12:31:48;33.30;42.40
38020;DHT22;23829;51.350;17.286;2022-10-16T12:34:34;33.50;42.30
38020;DHT22;23829;51.350;17.286;2022-10-16T12:37:33;33.60;42.10
38020;DHT22;23829;51.350;17.286;2022-10-16T12:40:30;33.60;41.90
38020;DHT22;23829;51.350;17.286;2022-10-16T12:42:57;33.50;41.80
38020;DHT22;23829;51.350;17.286;2022-10-16T12:45:31;33.60;42.00
38020;DHT22;23829;51.350;17.286;2022-10-16T12:48:00;33.50;42.10
38020;DHT22;23829;51.350;17.286;2022-10-16T12:50:28;33.50;42.10
38020;DHT22;23829;51.350;17.286;2022-10-16T12:52:57;33.30;42.20
38020;DHT22;23829;51.350;17.286;2022-10-16T12:55:24;33.40;41.80
38020;DHT22;23829;51.350;17.286;2022-10-16T13:00:50;33.70;41.90
38020;DHT22;23829;51.350;17.286;2022-10-16T13:06:44;33.70;41.70
38020;DHT22;23829;51.350;17.286;2022-10-16T13:09:23;33.60;41.90
38020;DHT22;23829;51.350;17.286;2022-10-16T13:12:13;33.50;42.20
38020;DHT22;23829;51.350;17.286;2022-10-16T13:23:13;33.50;41.70
38020;DHT22;23829;51.350;17.286;2022-10-16T13:26:01;33.50;41.90
38020;DHT22;23829;51.350;17.286;2022-10-16T13:28:34;33.50;42.10
38020;DHT22;23829;51.350;17.286;2022-10-16T13:31:02;33.50;42.00
38020;DHT22;23829;51.350;17.286;2022-10-16T13:33:36;33.50;42.20
38020;DHT22;23829;51.350;17.286;2022-10-16T13:36:04;33.30;42.70
38020;DHT22;23829;51.350;17.286;2022-10-16T13:38:35;33.50;43.00
38020;DHT22;23829;51.350;17.286;2022-10-16T13:41:04;33.60;42.60
38020;DHT22;23829;51.350;17.286;2022-10-16T13:46:06;33.70;41.90
38020;DHT22;23829;51.350;17.286;2022-10-16T13:48:34;33.50;41.90
38020;DHT22;23829;51.350;17.286;2022-10-16T13:51:06;33.30;42.30
38020;DHT22;23829;51.350;17.286;2022-10-16T13:53:34;33.20;42.50
38020;DHT22;23829;51.350;17.286;2022-10-16T13:56:06;33.30;42.10
38020;DHT22;23829;51.350;17.286;2022-10-16T13:58:33;33.20;42.20
38020;DHT22;23829;51.350;17.286;2022-10-16T14:01:25;33.20;42.50
38020;DHT22;23829;51.350;17.286;2022-10-16T14:03:53;33.20;42.60
38020;DHT22;23829;51.350;17.286;2022-10-16T14:06:26;33.20;42.50
38020;DHT22;23829;51.350;17.286;2022-10-16T14:09:06;33.20;42.50
38020;DHT22;23829;51.350;17.286;2022-10-16T14:11:37;33.10;42.70
38020;DHT22;23829;51.350;17.286;2022-10-16T14:14:05;33.00;42.80
38020;DHT22;23829;51.350;17.286;2022-10-16T14:16:32;33.10;42.80
38020;DHT22;23829;51.350;17.286;2022-10-16T14:19:04;33.00;42.90
38020;DHT22;23829;51.350;17.286;2022-10-16T14:21:33;33.10;42.50
38020;DHT22;23829;51.350;17.286;2022-10-16T14:24:11;33.10;42.30
38020;DHT22;23829;51.350;17.286;2022-10-16T14:26:44;33.10;42.50
38020;DHT22;23829;51.350;17.286;2022-10-16T14:29:30;33.00;42.70
38020;DHT22;23829;51.350;17.286;2022-10-16T14:32:04;32.90;42.80
38020;DHT22;23829;51.350;17.286;2022-10-16T14:34:33;32.90;42.80
38020;DHT22;23829;51.350;17.286;2022-10-16T14:39:50;32.80;43.10
38020;DHT22;23829;51.350;17.286;2022-10-16T14:42:18;32.80;43.20
38020;DHT22;23829;51.350;17.286;2022-10-16T14:44:47;32.70;43.10
38020;DHT22;23829;51.350;17.286;2022-10-16T14:47:15;32.70;43.20
38020;DHT22;23829;51.350;17.286;2022-10-16T14:49:43;32.60;43.40
38020;DHT22;23829;51.350;17.286;2022-10-16T14:52:12;32.50;43.30
38020;DHT22;23829;51.350;17.286;2022-10-16T14:54:40;32.50;43.40
38020;DHT22;23829;51.350;17.286;2022-10-16T14:57:22;32.40;43.80
38020;DHT22;23829;51.350;17.286;2022-10-16T14:59:49;32.30;43.90
38020;DHT22;23829;51.350;17.286;2022-10-16T15:02:29;32.30;43.90
38020;DHT22;23829;51.350;17.286;2022-10-16T15:04:56;32.30;44.00
38020;DHT22;23829;51.350;17.286;2022-10-16T15:07:23;32.20;44.40
38020;DHT22;23829;51.350;17.286;2022-10-16T15:09:50;32.20;44.50
38020;DHT22;23829;51.350;17.286;2022-10-16T15:12:16;32.10;44.60
38020;DHT22;23829;51.350;17.286;2022-10-16T15:14:43;32.20;45.30
38020;DHT22;23829;51.350;17.286;2022-10-16T15:17:10;32.20;44.60
38020;DHT22;23829;51.350;17.286;2022-10-16T15:19:37;32.20;44.50
38020;DHT22;23829;51.350;17.286;2022-10-16T15:22:04;32.30;44.50
38020;DHT22;23829;51.350;17.286;2022-10-16T15:24:30;32.40;44.50
38020;DHT22;23829;51.350;17.286;2022-10-16T15:26:57;32.40;44.60
38020;DHT22;23829;51.350;17.286;2022-10-16T15:29:23;32.40;44.50
38020;DHT22;23829;51.350;17.286;2022-10-16T15:31:49;32.30;44.70
38020;DHT22;23829;51.350;17.286;2022-10-16T15:34:16;32.20;44.90
38020;DHT22;23829;51.350;17.286;2022-10-16T15:36:45;32.20;44.80
38020;DHT22;23829;51.350;17.286;2022-10-16T15:39:17;32.20;44.90
38020;DHT22;23829;51.350;17.286;2022-10-16T15:41:47;32.00;44.90
38020;DHT22;23829;51.350;17.286;2022-10-16T15:44:17;32.00;45.20
38020;DHT22;23829;51.350;17.286;2022-10-16T15:46:44;32.00;45.00
38020;DHT22;23829;51.350;17.286;2022-10-16T15:49:11;31.90;45.10
38020;DHT22;23829;51.350;17.286;2022-10-16T15:51:39;31.90;45.20
38020;DHT22;23829;51.350;17.286;2022-10-16T15:54:07;31.80;45.20
38020;DHT22;23829;51.350;17.286;2022-10-16T15:56:34;31.80;45.10
38020;DHT22;23829;51.350;17.286;2022-10-16T15:59:03;31.80;45.30
38020;DHT22;23829;51.350;17.286;2022-10-16T16:01:34;31.80;45.30
38020;DHT22;23829;51.350;17.286;2022-10-16T16:04:01;31.80;45.40
38020;DHT22;23829;51.350;17.286;2022-10-16T16:06:28;31.60;45.30
38020;DHT22;23829;51.350;17.286;2022-10-16T16:08:54;31.60;45.40
38020;DHT22;23829;51.350;17.286;2022-10-16T16:11:21;31.60;45.40
38020;DHT22;23829;51.350;17.286;2022-10-16T16:13:49;31.60;45.40
38020;DHT22;23829;51.350;17.286;2022-10-16T16:16:16;31.50;45.40
38020;DHT22;23829;51.350;17.286;2022-10-16T16:18:44;31.50;45.60
38020;DHT22;23829;51.350;17.286;2022-10-16T16:21:13;31.40;45.60
38020;DHT22;23829;51.350;17.286;2022-10-16T16:23:40;31.40;45.70
38020;DHT22;23829;51.350;17.286;2022-10-16T16:26:23;31.40;45.80
38020;DHT22;23829;51.350;17.286;2022-10-16T16:28:53;31.30;45.90
38020;DHT22;23829;51.350;17.286;2022-10-16T16:31:25;31.20;45.80
38020;DHT22;23829;51.350;17.286;2022-10-16T16:33:52;31.20;46.10
38020;DHT22;23829;51.350;17.286;2022-10-16T16:36:18;31.10;46.00
38020;DHT22;23829;51.350;17.286;2022-10-16T16:38:45;31.00;45.90
38020;DHT22;23829;51.350;17.286;2022-10-16T16:41:17;30.80;46.40
38020;DHT22;23829;51.350;17.286;2022-10-16T16:43:44;30.60;46.70
38020;DHT22;23829;51.350;17.286;2022-10-16T16:46:11;30.60;46.90
38020;DHT22;23829;51.350;17.286;2022-10-16T16:48:38;30.50;47.00
38020;DHT22;23829;51.350;17.286;2022-10-16T16:51:10;30.50;47.10
38020;DHT22;23829;51.350;17.286;2022-10-16T16:53:44;30.40;47.10
38020;DHT22;23829;51.350;17.286;2022-10-16T16:56:10;30.30;47.30
38020;DHT22;23829;51.350;17.286;2022-10-16T16:58:37;30.20;47.60
38020;DHT22;23829;51.350;17.286;2022-10-16T17:01:03;30.30;47.40
38020;DHT22;23829;51.350;17.286;2022-10-16T17:03:32;30.40;47.30
38020;DHT22;23829;51.350;17.286;2022-10-16T17:06:04;30.40;47.20
38020;DHT22;23829;51.350;17.286;2022-10-16T17:08:31;30.30;47.30
38020;DHT22;23829;51.350;17.286;2022-10-16T17:10:58;30.40;47.30
38020;DHT22;23829;51.350;17.286;2022-10-16T17:13:26;30.50;47.20
38020;DHT22;23829;51.350;17.286;2022-10-16T17:15:53;30.40;47.10
38020;DHT22;23829;51.350;17.286;2022-10-16T17:18:22;30.40;47.00
38020;DHT22;23829;51.350;17.286;2022-10-16T17:20:49;30.60;47.00
38020;DHT22;23829;51.350;17.286;2022-10-16T17:23:18;30.60;46.70
38020;DHT22;23829;51.350;17.286;2022-10-16T17:25:45;30.60;46.70
38020;DHT22;23829;51.350;17.286;2022-10-16T17:28:13;30.50;46.50
38020;DHT22;23829;51.350;17.286;2022-10-16T17:30:40;30.40;47.00
38020;DHT22;23829;51.350;17.286;2022-10-16T17:33:09;30.40;46.90
38020;DHT22;23829;51.350;17.286;2022-10-16T17:35:37;30.30;46.90
38020;DHT22;23829;51.350;17.286;2022-10-16T17:38:04;30.30;47.10